Time;durP1;ratioP1;P1;durP2;ratioP2;P2;SDS_P1;SDS_P2;PMS_P1;PMS_P2;Temp;Humidity;BMP_temperature;BMP_pressure;BME280_temperature;BME280_humidity;BME280_pressure;Samples;Min_cycle;Max_cycle;Signal;HPM_P1;HPM_P2
2022/01/15 00:02:10;;;;;;;28.52;11.93;;;6.90;99.90;;;;;;5024159;28;20399;-69
2022/01/15 00:04:37;;;;;;;31.05;12.25;;;6.90;99.90;;;;;;4989927;28;274238;-68
2022/01/15 00:07:03;;;;;;;26.90;11.38;;;6.90;99.90;;;;;;5023824;28;20502;-69
2022/01/15 00:09:29;;;;;;;28.17;11.13;;;6.90;99.90;;;;;;5005853;28;258458;-68
2022/01/15 00:11:55;;;;;;;31.33;12.25;;;6.90;99.90;;;;;;5006787;28;20569;-68
2022/01/15 00:14:43;;;;;;;35.45;12.82;;;6.90;99.90;;;;;;5001206;28;264695;-68
2022/01/15 00:17:15;;;;;;;27.23;11.02;;;6.80;99.90;;;;;;5024570;28;20046;-68
2022/01/15 00:19:42;;;;;;;24.30;10.32;;;6.80;99.90;;;;;;5005644;28;263978;-68
2022/01/15 00:22:10;;;;;;;24.70;10.82;;;6.80;99.90;;;;;;5024363;28;20060;-68
2022/01/15 00:24:36;;;;;;;29.25;11.30;;;6.80;99.90;;;;;;4988969;28;278828;-68
2022/01/15 00:27:02;;;;;;;24.80;9.65;;;6.80;99.90;;;;;;5014720;28;20054;-68
2022/01/15 00:29:30;;;;;;;29.40;11.00;;;6.80;99.90;;;;;;5003560;28;254255;-68
2022/01/15 00:31:56;;;;;;;28.60;10.73;;;6.80;99.90;;;;;;5013319;28;20064;-67
2022/01/15 00:34:22;;;;;;;25.25;10.10;;;6.80;99.90;;;;;;5007308;28;266520;-68
2022/01/15 00:36:48;;;;;;;25.35;10.38;;;6.80;99.90;;;;;;5026323;28;20053;-67
2022/01/15 00:39:15;;;;;;;24.95;10.68;;;6.80;99.90;;;;;;5004678;28;259314;-68
2022/01/15 00:41:41;;;;;;;27.08;11.32;;;6.80;99.90;;;;;;5025608;28;20078;-67
2022/01/15 00:44:07;;;;;;;25.33;10.55;;;6.80;99.90;;;;;;5003694;28;252153;-67
2022/01/15 00:46:33;;;;;;;25.35;10.48;;;6.80;99.90;;;;;;5028952;28;20363;-68
2022/01/15 00:48:59;;;;;;;27.90;10.50;;;6.80;99.90;;;;;;4983467;28;258857;-68
2022/01/15 00:51:25;;;;;;;29.17;10.63;;;6.80;99.90;;;;;;5028969;28;20045;-68
2022/01/15 00:53:51;;;;;;;25.67;10.50;;;6.70;99.90;;;;;;4997439;28;256149;-68
2022/01/15 00:56:18;;;;;;;25.55;10.98;;;6.80;99.90;;;;;;5016847;28;20068;-68
2022/01/15 00:58:44;;;;;;;23.42;9.82;;;6.80;99.90;;;;;;4983292;28;253646;-68
2022/01/15 01:01:10;;;;;;;23.13;9.55;;;6.80;99.90;;;;;;5026840;28;20149;-68
2022/01/15 01:03:36;;;;;;;21.70;8.60;;;6.80;99.90;;;;;;5006139;28;262472;-67
2022/01/15 01:06:02;;;;;;;21.48;9.02;;;6.80;99.90;;;;;;5017929;28;66622;-68
2022/01/15 01:08:29;;;;;;;22.98;10.23;;;6.80;99.90;;;;;;5003634;28;20053;-68
2022/01/15 01:10:58;;;;;;;20.27;9.02;;;6.80;99.90;;;;;;5012592;28;257099;-68
2022/01/15 01:24:17;;;;;;;25.85;11.05;;;6.70;99.90;;;;;;4961099;28;20539;-68
2022/01/15 01:26:48;;;;;;;25.20;11.13;;;6.70;99.90;;;;;;4969379;28;20215;-68
2022/01/15 01:29:29;;;;;;;27.48;11.30;;;6.70;99.90;;;;;;4957607;28;155996;-68
2022/01/15 01:32:08;;;;;;;24.92;11.10;;;6.70;99.90;;;;;;4971038;28;20059;-68
2022/01/15 01:34:38;;;;;;;23.08;10.50;;;6.80;99.90;;;;;;4959352;28;101946;-68
2022/01/15 01:40:16;;;;;;;24.83;11.05;;;6.70;99.90;;;;;;4955343;28;146873;-68
2022/01/15 01:45:04;;;;;;;29.15;11.15;;;6.70;99.90;;;;;;4960929;28;55259;-68
2022/01/15 01:47:40;;;;;;;23.50;10.20;;;6.70;99.90;;;;;;4972418;28;20527;-68
2022/01/15 01:50:16;;;;;;;24.80;10.80;;;6.70;99.90;;;;;;4951675;28;237693;-67
2022/01/15 01:52:45;;;;;;;23.85;10.02;;;6.80;99.90;;;;;;4988868;28;20509;-67
2022/01/15 01:55:11;;;;;;;21.65;9.25;;;6.70;99.90;;;;;;5009103;28;250792;-67
2022/01/15 01:57:39;;;;;;;23.10;9.95;;;6.70;99.90;;;;;;4998084;28;20458;-67
2022/01/15 02:00:07;;;;;;;20.92;8.60;;;6.80;99.90;;;;;;5004356;28;273056;-68
2022/01/15 02:02:35;;;;;;;17.38;7.38;;;6.80;99.90;;;;;;5017852;28;20050;-67
2022/01/15 02:05:02;;;;;;;13.80;6.22;;;6.80;99.90;;;;;;4990656;28;268746;-68
2022/01/15 02:07:29;;;;;;;16.27;6.22;;;6.70;99.90;;;;;;5019964;28;20049;-68
2022/01/15 02:09:57;;;;;;;14.98;6.40;;;6.70;99.90;;;;;;5006929;28;270222;-68
2022/01/15 02:12:24;;;;;;;16.65;6.10;;;6.70;99.90;;;;;;5019272;28;20052;-68
2022/01/15 02:14:50;;;;;;;14.55;5.95;;;6.70;99.90;;;;;;5007385;28;95749;-67
2022/01/15 02:17:19;;;;;;;12.98;5.53;;;6.70;99.90;;;;;;5022814;28;20038;-68
2022/01/15 02:20:08;;;;;;;13.13;5.25;;;6.70;99.90;;;;;;5001231;28;258585;-68
2022/01/15 02:25:17;;;;;;;11.80;4.75;;;6.70;99.90;;;;;;5007023;28;269480;-68
2022/01/15 02:27:43;;;;;;;13.63;5.28;;;6.70;99.90;;;;;;5020335;28;20414;-68
2022/01/15 02:30:11;;;;;;;12.18;5.22;;;6.70;99.90;;;;;;4991573;28;183883;-68
2022/01/15 02:32:37;;;;;;;14.98;4.72;;;6.70;99.90;;;;;;5021865;28;20439;-68
2022/01/15 02:35:04;;;;;;;11.55;4.50;;;6.70;99.90;;;;;;5009461;28;269706;-68
2022/01/15 02:37:30;;;;;;;10.18;4.55;;;6.70;99.90;;;;;;5007278;28;20049;-68
2022/01/15 02:39:57;;;;;;;11.88;4.50;;;6.70;99.90;;;;;;5004420;28;263994;-68
2022/01/15 02:42:27;;;;;;;12.05;4.78;;;6.70;99.90;;;;;;5020634;28;20045;-69
2022/01/15 02:44:59;;;;;;;11.82;4.68;;;6.70;99.90;;;;;;4995663;28;88371;-68
2022/01/15 02:50:11;;;;;;;11.40;4.85;;;6.70;99.90;;;;;;5007798;28;256604;-68
2022/01/15 02:52:37;;;;;;;12.43;4.60;;;6.70;99.90;;;;;;5020366;28;20042;-68
2022/01/15 02:55:04;;;;;;;12.75;4.45;;;6.70;99.90;;;;;;5011632;28;261282;-68
2022/01/15 02:57:30;;;;;;;12.68;4.70;;;6.70;99.90;;;;;;5008312;28;21346;-68
2022/01/15 02:59:56;;;;;;;11.27;4.40;;;6.70;99.90;;;;;;5011329;28;252273;-68
2022/01/15 03:02:23;;;;;;;11.02;4.85;;;6.70;99.90;;;;;;5023451;28;20064;-68
2022/01/15 03:04:49;;;;;;;11.02;4.05;;;6.70;99.90;;;;;;4991554;28;267725;-68
2022/01/15 03:07:15;;;;;;;10.60;4.47;;;6.60;99.90;;;;;;5023231;28;20057;-68
2022/01/15 03:09:41;;;;;;;12.07;5.05;;;6.70;99.90;;;;;;5005192;28;270628;-68
2022/01/15 03:12:08;;;;;;;15.60;6.13;;;6.70;99.90;;;;;;5021568;28;20061;-68
2022/01/15 03:14:34;;;;;;;13.75;5.90;;;6.60;99.90;;;;;;5004338;28;273374;-68
2022/01/15 03:17:00;;;;;;;14.20;6.60;;;6.60;99.90;;;;;;5028788;28;20399;-68
2022/01/15 03:19:26;;;;;;;14.98;6.10;;;6.60;99.90;;;;;;5003250;28;256907;-68
2022/01/15 03:21:52;;;;;;;14.43;6.55;;;6.60;99.90;;;;;;5013564;28;20092;-68
2022/01/15 03:24:18;;;;;;;13.27;5.90;;;6.60;99.90;;;;;;5000452;28;271667;-68
2022/01/15 03:26:45;;;;;;;12.57;5.30;;;6.60;99.90;;;;;;5015890;28;20054;-68
2022/01/15 03:29:11;;;;;;;12.02;5.07;;;6.60;99.90;;;;;;4997375;28;267678;-68
2022/01/15 03:31:37;;;;;;;13.75;4.95;;;6.60;99.90;;;;;;5017751;28;20069;-68
2022/01/15 03:34:03;;;;;;;12.30;4.75;;;6.60;99.90;;;;;;5005771;28;272372;-68
2022/01/15 03:36:29;;;;;;;11.05;4.70;;;6.60;99.90;;;;;;5029843;28;20044;-68
2022/01/15 03:38:55;;;;;;;11.63;4.63;;;6.50;99.90;;;;;;5001629;28;262536;-68
2022/01/15 03:41:21;;;;;;;12.50;4.50;;;6.50;99.90;;;;;;5030093;28;20050;-68
2022/01/15 03:43:47;;;;;;;10.57;4.10;;;6.50;99.90;;;;;;5002096;28;267962;-68
2022/01/15 03:46:13;;;;;;;13.07;4.28;;;6.50;99.90;;;;;;5028734;28;20057;-68
2022/01/15 03:48:40;;;;;;;10.07;4.05;;;6.50;99.90;;;;;;4981964;28;258654;-68
2022/01/15 03:51:06;;;;;;;9.57;3.70;;;6.50;99.90;;;;;;5030234;28;20124;-68
2022/01/15 03:53:32;;;;;;;8.80;3.20;;;6.50;99.90;;;;;;5019316;28;20060;-68
2022/01/15 03:55:58;;;;;;;8.75;3.50;;;6.50;99.90;;;;;;5013180;28;208063;-68
2022/01/15 03:58:24;;;;;;;9.02;3.15;;;6.50;99.90;;;;;;5019241;28;20053;-68
2022/01/15 04:00:51;;;;;;;10.13;3.40;;;6.50;99.90;;;;;;5013822;28;262544;-68
2022/01/15 04:03:17;;;;;;;9.75;3.40;;;6.50;99.90;;;;;;5018206;28;20060;-68
2022/01/15 04:05:43;;;;;;;9.23;3.70;;;6.50;99.90;;;;;;4996874;28;272090;-68
2022/01/15 04:08:09;;;;;;;12.02;4.50;;;6.50;99.90;;;;;;5022012;28;20492;-68
2022/01/15 04:10:35;;;;;;;11.13;4.65;;;6.50;99.90;;;;;;5011464;28;262386;-68
2022/01/15 04:13:02;;;;;;;12.48;5.43;;;6.50;99.90;;;;;;4997113;28;20049;-68
2022/01/15 04:15:28;;;;;;;14.25;5.68;;;6.50;99.90;;;;;;4995701;28;159269;-68
2022/01/15 04:17:54;;;;;;;11.48;5.32;;;6.50;99.90;;;;;;4997895;28;20042;-68
2022/01/15 04:20:22;;;;;;;13.90;6.25;;;6.50;99.90;;;;;;5007787;28;263286;-68
2022/01/15 04:22:50;;;;;;;14.68;6.32;;;6.50;99.90;;;;;;5021601;28;20080;-68
2022/01/15 04:25:17;;;;;;;17.25;6.57;;;6.50;99.90;;;;;;4998509;28;95892;-68
2022/01/15 04:27:44;;;;;;;14.48;6.47;;;6.50;99.90;;;;;;5020294;28;20479;-68
2022/01/15 04:30:12;;;;;;;17.35;6.63;;;6.50;99.90;;;;;;5011853;28;248865;-68
2022/01/15 04:32:39;;;;;;;13.90;6.05;;;6.50;99.90;;;;;;5017822;28;20056;-68
2022/01/15 04:35:06;;;;;;;19.48;6.28;;;6.50;99.90;;;;;;5009172;28;253273;-68
2022/01/15 04:37:39;;;;;;;14.55;5.65;;;6.50;99.90;;;;;;5000857;28;20057;-68
2022/01/15 04:40:07;;;;;;;13.45;6.03;;;6.50;99.90;;;;;;5008080;28;265998;-68
2022/01/15 04:42:34;;;;;;;12.05;5.25;;;6.50;99.90;;;;;;5019964;28;20053;-68
2022/01/15 04:45:02;;;;;;;15.85;6.00;;;6.50;99.90;;;;;;5006762;28;266629;-68
2022/01/15 04:47:28;;;;;;;13.68;5.43;;;6.50;99.90;;;;;;5015902;28;20056;-68
2022/01/15 04:49:55;;;;;;;12.23;4.70;;;6.50;99.90;;;;;;5008009;28;270898;-68
2022/01/15 04:52:25;;;;;;;15.15;4.90;;;6.50;99.90;;;;;;5021635;28;20054;-68
2022/01/15 04:54:51;;;;;;;13.60;5.60;;;6.50;99.90;;;;;;5008607;28;269403;-68
2022/01/15 04:57:18;;;;;;;15.07;6.45;;;6.50;99.90;;;;;;5022210;28;20049;-68
2022/01/15 04:59:44;;;;;;;15.60;6.50;;;6.40;99.90;;;;;;4995727;28;20068;-68
2022/01/15 05:02:10;;;;;;;13.15;5.47;;;6.40;99.90;;;;;;5023697;28;20049;-68
2022/01/15 05:04:36;;;;;;;14.23;5.22;;;6.40;99.90;;;;;;4990298;28;262696;-68
2022/01/15 05:07:03;;;;;;;12.77;5.05;;;6.40;99.90;;;;;;5008165;28;20061;-68
2022/01/15 05:09:29;;;;;;;15.60;5.78;;;6.40;99.90;;;;;;5002682;28;257831;-68
2022/01/15 05:12:02;;;;;;;16.02;5.68;;;6.40;99.90;;;;;;5025590;28;20064;-68
2022/01/15 05:14:28;;;;;;;13.20;5.65;;;6.30;99.90;;;;;;5002847;28;249051;-68
2022/01/15 05:16:54;;;;;;;15.77;5.82;;;6.40;99.90;;;;;;5009383;28;20050;-68
2022/01/15 05:19:21;;;;;;;13.98;5.80;;;6.40;99.90;;;;;;5004680;28;252883;-68
2022/01/15 05:21:47;;;;;;;13.32;5.80;;;6.40;99.90;;;;;;5024714;28;20050;-68
2022/01/15 05:24:13;;;;;;;14.38;5.78;;;6.40;99.90;;;;;;4993925;28;62029;-68
2022/01/15 05:26:39;;;;;;;15.40;5.78;;;6.40;99.90;;;;;;5014516;28;20525;-68
2022/01/15 05:29:05;;;;;;;15.68;5.93;;;6.40;99.90;;;;;;4995823;28;275176;-68
2022/01/15 05:31:31;;;;;;;14.68;5.85;;;6.40;99.90;;;;;;5024588;28;20045;-68
2022/01/15 05:33:57;;;;;;;12.85;5.30;;;6.40;99.90;;;;;;5001248;28;270359;-67
2022/01/15 05:36:24;;;;;;;13.85;5.55;;;6.30;99.90;;;;;;5026346;28;20483;-68
2022/01/15 05:38:51;;;;;;;13.13;4.90;;;6.40;99.90;;;;;;4996518;28;269263;-68
2022/01/15 05:41:17;;;;;;;13.20;4.95;;;6.40;99.90;;;;;;5028461;28;20640;-67
2022/01/15 05:43:43;;;;;;;12.10;5.07;;;6.30;99.90;;;;;;4999033;28;273124;-68
2022/01/15 05:46:09;;;;;;;12.35;4.72;;;6.40;99.90;;;;;;5025724;28;20050;-68
2022/01/15 05:48:35;;;;;;;14.10;5.32;;;6.40;99.90;;;;;;4991527;28;277140;-67
2022/01/15 05:51:02;;;;;;;13.38;4.70;;;6.30;99.90;;;;;;5023073;28;20414;-68
2022/01/15 05:53:28;;;;;;;14.70;5.30;;;6.30;99.90;;;;;;5016326;28;20485;-68
2022/01/15 05:55:54;;;;;;;13.73;5.28;;;6.30;99.90;;;;;;5012982;28;257249;-68
2022/01/15 05:58:20;;;;;;;13.30;5.22;;;6.30;99.90;;;;;;5018377;28;20050;-68
2022/01/15 06:00:46;;;;;;;13.52;5.20;;;6.30;99.90;;;;;;4995039;28;253797;-68
2022/01/15 06:03:12;;;;;;;12.85;5.00;;;6.30;99.90;;;;;;5015038;28;20056;-68
2022/01/15 06:05:38;;;;;;;10.90;4.30;;;6.30;99.90;;;;;;4981109;28;170206;-68
2022/01/15 06:08:05;;;;;;;12.27;4.93;;;6.20;99.90;;;;;;4996015;28;20060;-68
2022/01/15 06:10:31;;;;;;;12.40;4.28;;;6.30;99.90;;;;;;4996572;28;100140;-68
2022/01/15 06:12:57;;;;;;;12.02;4.68;;;6.20;99.90;;;;;;5004493;28;20137;-68
2022/01/15 06:15:23;;;;;;;11.10;4.45;;;6.30;99.90;;;;;;5001790;28;196953;-68
2022/01/15 06:17:49;;;;;;;12.27;4.93;;;6.20;99.90;;;;;;5015749;28;20053;-68
2022/01/15 06:20:15;;;;;;;10.95;4.07;;;6.20;99.90;;;;;;4995649;28;267114;-68
2022/01/15 06:22:42;;;;;;;11.45;4.80;;;6.20;99.90;;;;;;4998297;28;20503;-69
2022/01/15 06:25:09;;;;;;;13.32;4.68;;;6.20;99.90;;;;;;5009360;28;248583;-68
2022/01/15 06:27:35;;;;;;;12.43;4.68;;;6.20;99.90;;;;;;5018545;28;20839;-68
2022/01/15 06:30:01;;;;;;;12.20;4.97;;;6.20;99.90;;;;;;4998226;28;57099;-68
2022/01/15 06:32:28;;;;;;;12.48;4.68;;;6.20;99.90;;;;;;5024612;28;20481;-68
2022/01/15 06:34:54;;;;;;;12.50;5.28;;;6.20;99.90;;;;;;5011322;28;259087;-68
2022/01/15 06:37:21;;;;;;;13.52;4.97;;;6.20;99.90;;;;;;5008415;28;20049;-68
2022/01/15 06:39:47;;;;;;;12.00;5.15;;;6.30;99.90;;;;;;5011277;28;257975;-68
2022/01/15 06:42:14;;;;;;;13.88;5.18;;;6.20;99.90;;;;;;5008063;28;20060;-68
2022/01/15 06:44:40;;;;;;;13.27;5.00;;;6.20;99.90;;;;;;5001122;28;273112;-68
2022/01/15 06:47:06;;;;;;;13.20;5.40;;;6.20;99.90;;;;;;5023722;28;20363;-68
2022/01/15 06:49:32;;;;;;;14.13;5.70;;;6.20;99.90;;;;;;5006769;28;276880;-68
2022/01/15 06:51:59;;;;;;;13.10;5.65;;;6.20;99.90;;;;;;5028467;28;20045;-68
2022/01/15 06:54:25;;;;;;;14.40;5.88;;;6.20;99.90;;;;;;4998649;28;216231;-68
2022/01/15 06:56:51;;;;;;;15.23;6.10;;;6.20;99.90;;;;;;5029904;28;20056;-68
2022/01/15 06:59:17;;;;;;;15.82;6.28;;;6.20;99.90;;;;;;5003837;28;77737;-68
2022/01/15 07:01:43;;;;;;;13.45;5.65;;;6.20;99.90;;;;;;5029490;28;20046;-68
2022/01/15 07:04:09;;;;;;;17.90;6.15;;;6.10;99.90;;;;;;4994263;28;254162;-68
2022/01/15 07:06:36;;;;;;;14.57;6.10;;;6.10;99.90;;;;;;5031277;28;20061;-68
2022/01/15 07:09:02;;;;;;;15.50;6.30;;;6.10;99.90;;;;;;4987937;28;20065;-68
2022/01/15 07:11:28;;;;;;;16.38;6.50;;;6.10;99.90;;;;;;5034099;28;20068;-68
2022/01/15 07:13:54;;;;;;;18.67;7.10;;;6.10;99.90;;;;;;5005594;28;268324;-68
2022/01/15 07:16:20;;;;;;;17.50;6.68;;;6.10;99.90;;;;;;5032983;28;20058;-68
2022/01/15 07:18:46;;;;;;;16.90;7.10;;;6.10;99.90;;;;;;5003282;28;273975;-68
2022/01/15 07:21:12;;;;;;;16.75;6.95;;;6.10;99.90;;;;;;5035869;28;20052;-68
2022/01/15 07:23:39;;;;;;;16.15;6.45;;;6.10;99.90;;;;;;5005462;28;256678;-67
2022/01/15 07:26:05;;;;;;;17.08;7.47;;;6.10;99.90;;;;;;5020525;28;20045;-68
2022/01/15 07:28:31;;;;;;;18.30;7.30;;;6.10;99.90;;;;;;5019458;28;20045;-68
2022/01/15 07:30:58;;;;;;;17.30;7.22;;;6.10;99.90;;;;;;5008315;28;29273;-68
2022/01/15 07:33:24;;;;;;;16.83;6.80;;;6.10;99.90;;;;;;5019154;28;20050;-68
2022/01/15 07:35:50;;;;;;;16.85;5.90;;;6.10;99.90;;;;;;5012837;28;265876;-68
2022/01/15 07:38:19;;;;;;;15.23;6.35;;;6.10;99.90;;;;;;5009272;28;20392;-68
2022/01/15 07:40:47;;;;;;;16.20;6.20;;;6.00;99.90;;;;;;5014337;28;267634;-68
2022/01/15 07:43:13;;;;;;;15.73;6.13;;;6.10;99.90;;;;;;5016240;28;20060;-68
2022/01/15 07:45:40;;;;;;;16.45;6.10;;;6.10;99.90;;;;;;5011727;28;257327;-68
2022/01/15 07:48:06;;;;;;;14.45;6.03;;;6.10;99.90;;;;;;5017390;28;20046;-68
2022/01/15 07:50:32;;;;;;;16.20;6.38;;;6.00;99.90;;;;;;5013086;28;271550;-68
2022/01/15 07:52:58;;;;;;;15.95;6.53;;;6.10;99.90;;;;;;5018187;28;20102;-68
2022/01/15 07:55:26;;;;;;;14.93;6.30;;;6.10;99.90;;;;;;5010988;28;258698;-68
2022/01/15 07:57:53;;;;;;;16.55;6.70;;;6.10;99.90;;;;;;5021725;28;20046;-68
2022/01/15 08:00:20;;;;;;;15.27;6.82;;;6.10;99.90;;;;;;5010570;28;276084;-68
2022/01/15 08:02:46;;;;;;;14.20;6.13;;;6.10;99.90;;;;;;5017240;28;20057;-68
2022/01/15 08:05:13;;;;;;;16.95;6.30;;;6.10;99.90;;;;;;4998848;28;253148;-68
2022/01/15 08:07:43;;;;;;;16.13;6.25;;;6.10;99.90;;;;;;5008030;28;20049;-68
2022/01/15 08:10:09;;;;;;;15.27;6.68;;;6.10;99.90;;;;;;5014836;28;255194;-68
2022/01/15 08:12:48;;;;;;;13.55;5.13;;;6.10;99.90;;;;;;5004765;28;20077;-68
2022/01/15 08:15:19;;;;;;;13.52;5.55;;;6.00;99.90;;;;;;5005552;28;20104;-68
2022/01/15 08:17:46;;;;;;;12.57;5.28;;;6.00;99.90;;;;;;5020656;28;20068;-68
2022/01/15 08:20:13;;;;;;;13.68;5.53;;;5.90;99.90;;;;;;5014718;28;262439;-68
2022/01/15 08:22:40;;;;;;;13.43;5.63;;;6.00;99.90;;;;;;5022652;28;20046;-68
2022/01/15 08:25:07;;;;;;;13.88;5.57;;;6.00;99.90;;;;;;5008952;28;258643;-68
2022/01/15 08:27:33;;;;;;;15.38;5.95;;;6.00;99.90;;;;;;5022081;28;20407;-68
2022/01/15 08:29:59;;;;;;;14.77;6.50;;;5.90;99.90;;;;;;5005963;28;266666;-68
2022/01/15 08:32:26;;;;;;;16.58;6.90;;;5.90;99.90;;;;;;5032914;28;20075;-68
2022/01/15 08:34:52;;;;;;;16.27;7.80;;;5.90;99.90;;;;;;5015245;28;141538;-68
2022/01/15 08:37:18;;;;;;;16.90;7.63;;;5.90;99.90;;;;;;5010070;28;20386;-68
2022/01/15 08:39:44;;;;;;;16.58;7.60;;;5.90;99.90;;;;;;5010100;28;257011;-68
2022/01/15 08:42:10;;;;;;;17.13;7.63;;;6.00;99.90;;;;;;5026092;28;20438;-68
2022/01/15 08:44:41;;;;;;;17.30;8.23;;;6.00;99.90;;;;;;5009199;28;261903;-68
2022/01/15 08:47:08;;;;;;;19.27;9.15;;;6.00;99.90;;;;;;5027364;28;20060;-68
2022/01/15 08:49:34;;;;;;;20.25;8.25;;;6.00;99.90;;;;;;5007130;28;273519;-68
2022/01/15 08:52:01;;;;;;;16.75;8.45;;;6.00;99.90;;;;;;5026196;28;20374;-68
2022/01/15 08:54:27;;;;;;;19.50;8.77;;;6.00;99.90;;;;;;5005207;28;253372;-68
2022/01/15 08:56:53;;;;;;;17.83;8.57;;;6.00;99.90;;;;;;5006291;28;20369;-68
2022/01/15 08:59:19;;;;;;;17.80;8.27;;;6.00;99.90;;;;;;5004423;28;263872;-68
2022/01/15 09:01:45;;;;;;;18.90;9.02;;;5.90;99.90;;;;;;5022550;28;20072;-68
2022/01/15 09:04:12;;;;;;;19.63;9.48;;;5.80;99.90;;;;;;4976138;28;254130;-68
2022/01/15 09:06:39;;;;;;;20.20;9.55;;;5.80;99.90;;;;;;5035442;28;20056;-68
2022/01/15 09:09:06;;;;;;;20.25;9.27;;;5.90;99.90;;;;;;5010060;28;211073;-68
2022/01/15 09:11:32;;;;;;;19.85;9.50;;;5.90;99.90;;;;;;5035366;28;20071;-68
2022/01/15 09:13:58;;;;;;;20.30;9.13;;;5.90;99.90;;;;;;5010350;28;260939;-69
2022/01/15 09:16:24;;;;;;;18.98;9.10;;;5.90;99.90;;;;;;5037301;28;20406;-68
2022/01/15 09:18:50;;;;;;;16.30;8.80;;;5.90;99.90;;;;;;5009912;28;267280;-68
2022/01/15 09:21:17;;;;;;;18.13;8.68;;;5.90;99.90;;;;;;5035851;28;20497;-68
2022/01/15 09:23:43;;;;;;;19.67;9.02;;;5.90;99.90;;;;;;4989861;28;274022;-68
2022/01/15 09:26:19;;;;;;;17.40;7.90;;;5.90;99.90;;;;;;5037898;28;20042;-68
2022/01/15 09:31:31;;;;;;;19.58;8.57;;;5.90;99.90;;;;;;5033127;28;20061;-68
2022/01/15 09:33:57;;;;;;;17.73;8.57;;;5.90;99.90;;;;;;5006301;28;269266;-68
2022/01/15 09:36:23;;;;;;;18.42;8.02;;;5.90;99.90;;;;;;5031464;28;20387;-68
2022/01/15 09:38:49;;;;;;;16.30;7.70;;;5.80;99.90;;;;;;5008072;28;257646;-68
2022/01/15 09:41:15;;;;;;;16.63;7.75;;;5.80;99.90;;;;;;5042450;28;20059;-68
2022/01/15 09:43:43;;;;;;;16.63;7.65;;;5.80;99.90;;;;;;5012821;28;260811;-68
2022/01/15 09:46:10;;;;;;;18.60;7.90;;;5.80;99.90;;;;;;5041366;28;20466;-68
2022/01/15 09:48:38;;;;;;;17.33;8.05;;;5.80;99.90;;;;;;5019089;28;250631;-67
2022/01/15 09:51:05;;;;;;;18.25;8.05;;;5.80;99.90;;;;;;5041953;28;20057;-69
2022/01/15 09:53:34;;;;;;;17.17;8.32;;;5.80;99.90;;;;;;5043993;28;20057;-69
2022/01/15 09:56:05;;;;;;;20.13;9.35;;;5.80;99.90;;;;;;5011467;28;263241;-68
2022/01/15 09:58:32;;;;;;;20.55;9.18;;;5.80;99.90;;;;;;5031847;28;20193;-68
2022/01/15 10:00:58;;;;;;;19.10;9.13;;;5.70;99.90;;;;;;5021847;28;254355;-68
2022/01/15 10:03:24;;;;;;;20.10;8.90;;;5.70;99.90;;;;;;5022852;28;20119;-68
2022/01/15 10:05:50;;;;;;;21.88;9.75;;;5.70;99.90;;;;;;4994618;28;258382;-68
2022/01/15 10:08:20;;;;;;;24.65;10.85;;;5.70;99.90;;;;;;5030103;28;20487;-68
2022/01/15 10:10:49;;;;;;;22.60;10.93;;;5.70;99.90;;;;;;5009805;28;105945;-68
2022/01/15 10:13:30;;;;;;;24.45;10.90;;;5.80;99.90;;;;;;5031507;28;20052;-67
2022/01/15 10:16:00;;;;;;;23.27;10.90;;;5.80;99.90;;;;;;5020323;28;277607;-68
2022/01/15 10:18:31;;;;;;;28.67;12.15;;;5.80;99.90;;;;;;5037322;28;20044;-68
2022/01/15 10:21:32;;;;;;;27.48;11.90;;;5.90;99.90;;;;;;5016994;28;250644;-68
2022/01/15 10:24:00;;;;;;;29.58;13.45;;;5.90;99.90;;;;;;4958038;28;170448;-68
2022/01/15 10:26:31;;;;;;;29.75;14.13;;;5.90;99.90;;;;;;4962295;28;20065;-68
2022/01/15 10:29:07;;;;;;;28.20;12.77;;;5.90;99.90;;;;;;4940116;28;221017;-68
2022/01/15 10:31:44;;;;;;;28.75;13.23;;;6.00;99.90;;;;;;4975334;28;20046;-68
2022/01/15 10:34:29;;;;;;;26.15;12.80;;;6.00;99.90;;;;;;4967514;28;70726;-68
2022/01/15 10:37:19;;;;;;;26.50;13.18;;;6.00;99.90;;;;;;4961438;28;20074;-68
2022/01/15 10:40:06;;;;;;;24.20;11.77;;;6.00;99.90;;;;;;4954617;28;189225;-68
2022/01/15 10:42:32;;;;;;;26.75;13.05;;;5.90;99.90;;;;;;4973065;28;21150;-69
2022/01/15 10:45:06;;;;;;;23.27;12.45;;;5.80;99.90;;;;;;4941243;28;146616;-69
2022/01/15 10:47:40;;;;;;;26.27;12.23;;;5.70;99.90;;;;;;4971736;28;20572;-69
2022/01/15 10:50:07;;;;;;;26.50;12.80;;;5.70;99.90;;;;;;4941889;28;70861;-69
2022/01/15 10:52:33;;;;;;;27.05;13.48;;;5.70;99.90;;;;;;4966096;28;20042;-68
2022/01/15 10:55:09;;;;;;;28.20;13.45;;;5.70;99.90;;;;;;4951566;28;237469;-68
2022/01/15 10:57:38;;;;;;;29.60;13.73;;;5.70;99.90;;;;;;4973967;28;20046;-69
2022/01/15 11:00:06;;;;;;;28.95;13.27;;;5.80;99.90;;;;;;4992729;28;259688;-69
2022/01/15 11:02:33;;;;;;;26.80;13.18;;;5.80;99.90;;;;;;5018964;28;20049;-68
2022/01/15 11:05:00;;;;;;;29.65;13.35;;;5.70;99.90;;;;;;5005393;28;252362;-69
2022/01/15 11:07:26;;;;;;;28.63;14.75;;;5.70;99.90;;;;;;5031442;28;20045;-69
2022/01/15 11:09:55;;;;;;;28.27;14.20;;;5.60;99.90;;;;;;4996839;28;76643;-69
2022/01/15 11:12:27;;;;;;;30.67;13.57;;;5.60;99.90;;;;;;5024856;28;20049;-69
2022/01/15 11:14:53;;;;;;;26.48;14.20;;;5.60;99.90;;;;;;5001037;28;225484;-69
2022/01/15 11:17:20;;;;;;;26.05;13.23;;;5.50;99.90;;;;;;5032677;28;20160;-69
2022/01/15 11:19:52;;;;;;;27.52;14.23;;;5.50;99.90;;;;;;5020747;28;266716;-69
2022/01/15 11:22:22;;;;;;;28.48;13.88;;;5.60;99.90;;;;;;5033922;28;20088;-69
2022/01/15 11:24:50;;;;;;;26.90;14.20;;;5.60;99.90;;;;;;5007240;28;87200;-69
2022/01/15 11:27:17;;;;;;;27.85;13.43;;;5.70;99.90;;;;;;5032830;28;20053;-69
2022/01/15 11:29:45;;;;;;;23.60;12.55;;;5.80;99.90;;;;;;5013076;28;269881;-69
2022/01/15 11:32:13;;;;;;;22.77;12.20;;;5.80;99.90;;;;;;5034550;28;20058;-69
2022/01/15 11:34:41;;;;;;;22.38;11.98;;;5.80;99.90;;;;;;5015817;28;253838;-68
2022/01/15 11:37:18;;;;;;;24.67;12.43;;;5.80;99.90;;;;;;5020014;28;20045;-69
2022/01/15 11:39:45;;;;;;;24.48;12.50;;;5.80;99.90;;;;;;4998972;28;225657;-69
2022/01/15 11:42:27;;;;;;;24.05;12.82;;;5.80;99.90;;;;;;5036678;28;20413;-69
2022/01/15 11:44:54;;;;;;;22.40;12.05;;;5.80;99.90;;;;;;5017946;28;257200;-68
2022/01/15 11:47:25;;;;;;;24.02;13.05;;;5.80;99.90;;;;;;5036984;28;20144;-69
2022/01/15 11:49:53;;;;;;;24.10;12.27;;;5.80;99.90;;;;;;5014471;28;253482;-67
2022/01/15 11:52:22;;;;;;;23.85;12.65;;;5.80;99.90;;;;;;5034227;28;20145;-67
2022/01/15 11:54:54;;;;;;;23.67;13.00;;;5.70;99.90;;;;;;5019655;28;250538;-67
2022/01/15 11:57:31;;;;;;;24.08;12.98;;;5.70;99.90;;;;;;5038572;28;20054;-68
2022/01/15 11:59:59;;;;;;;26.60;14.43;;;5.70;99.90;;;;;;5019657;28;265175;-68
2022/01/15 12:02:27;;;;;;;25.45;14.10;;;5.70;99.90;;;;;;5036071;28;20070;-68
2022/01/15 12:04:54;;;;;;;26.05;13.63;;;5.70;99.90;;;;;;4999972;28;260216;-68
2022/01/15 12:07:21;;;;;;;26.55;14.40;;;5.70;99.90;;;;;;5031903;28;20061;-68
2022/01/15 12:09:52;;;;;;;24.75;13.93;;;5.80;99.90;;;;;;5015896;28;256756;-68
2022/01/15 12:12:26;;;;;;;28.52;15.60;;;5.80;99.90;;;;;;5029010;28;20052;-68
2022/01/15 12:15:04;;;;;;;26.20;14.00;;;5.80;99.90;;;;;;4991391;28;255301;-68
2022/01/15 12:17:32;;;;;;;25.83;14.15;;;5.80;99.90;;;;;;5022770;28;20122;-68
2022/01/15 12:20:00;;;;;;;26.85;15.05;;;5.80;99.90;;;;;;5018650;28;249391;-68
2022/01/15 12:22:45;;;;;;;25.45;15.13;;;5.80;99.90;;;;;;5029435;28;20095;-68
2022/01/15 12:25:17;;;;;;;26.25;15.02;;;5.70;99.90;;;;;;5019750;28;258284;-69
2022/01/15 12:27:47;;;;;;;26.10;15.05;;;5.60;99.90;;;;;;5010220;28;20049;-68
2022/01/15 12:30:21;;;;;;;27.77;15.60;;;5.60;99.90;;;;;;5011801;28;262683;-68
2022/01/15 12:32:55;;;;;;;31.15;15.80;;;5.50;99.90;;;;;;5029382;28;20061;-68
2022/01/15 12:35:23;;;;;;;27.15;15.20;;;5.50;99.90;;;;;;5005127;28;272197;-69
2022/01/15 12:38:05;;;;;;;26.83;15.63;;;5.50;99.90;;;;;;5026814;28;20041;-68
2022/01/15 12:40:47;;;;;;;26.02;14.85;;;5.50;99.90;;;;;;5022256;28;271689;-69
2022/01/15 12:43:23;;;;;;;28.83;15.82;;;5.50;99.90;;;;;;5029460;28;20049;-69
2022/01/15 12:46:17;;;;;;;30.85;16.80;;;5.50;99.90;;;;;;5018315;28;267616;-69
2022/01/15 12:48:46;;;;;;;29.58;16.45;;;5.60;99.90;;;;;;5007600;28;266189;-68
2022/01/15 12:51:21;;;;;;;28.83;16.35;;;5.60;99.90;;;;;;5019178;28;20066;-69
2022/01/15 12:53:53;;;;;;;30.50;16.90;;;5.60;99.90;;;;;;4992481;28;251955;-69
2022/01/15 12:56:20;;;;;;;27.20;15.75;;;5.60;99.90;;;;;;5018685;28;20057;-70
2022/01/15 12:58:47;;;;;;;29.38;15.98;;;5.60;99.90;;;;;;5005596;28;260502;-67
2022/01/15 13:01:22;;;;;;;27.45;15.90;;;5.60;99.90;;;;;;5038877;28;20053;-69
2022/01/15 13:03:48;;;;;;;30.90;16.85;;;5.60;99.90;;;;;;4995918;28;267453;-71
2022/01/15 13:06:14;;;;;;;27.45;16.00;;;5.60;99.90;;;;;;5036386;28;20541;-69
2022/01/15 13:08:43;;;;;;;31.00;16.42;;;5.50;99.90;;;;;;5003094;28;255500;-69